Time;durP1;ratioP1;P1;durP2;ratioP2;P2;SDS_P1;SDS_P2;PMS_P1;PMS_P2;Temp;Humidity;BMP_temperature;BMP_pressure;BME280_temperature;BME280_humidity;BME280_pressure;Samples;Min_cycle;Max_cycle;Signal;HPM_P1;HPM_P2
2023/05/14 00:02:53;;;;;;;6.20;3.75;;;;;;;14.17;61.82;100494.50;10416090;28;20077;-71
2023/05/14 00:07:55;;;;;;;6.57;3.60;;;;;;;14.11;62.01;100496.09;10418533;28;20046;-69
2023/05/14 00:12:56;;;;;;;7.22;3.97;;;;;;;14.09;62.23;100493.59;10417961;28;20057;-71
2023/05/14 00:17:57;;;;;;;6.40;3.78;;;;;;;14.04;61.82;100489.81;10420036;28;20088;-71
2023/05/14 00:22:59;;;;;;;6.50;3.95;;;;;;;13.93;62.07;100480.38;10417696;28;20049;-70
2023/05/14 00:28:01;;;;;;;6.65;4.45;;;;;;;13.87;62.46;100473.03;10417608;28;20064;-70
2023/05/14 00:33:03;;;;;;;7.18;4.07;;;;;;;13.83;62.24;100477.16;10420959;28;20487;-71
2023/05/14 00:38:04;;;;;;;5.57;4.65;;;;;;;13.75;62.00;100477.31;10420990;28;20073;-71
2023/05/14 00:43:06;;;;;;;6.78;4.85;;;;;;;13.57;62.72;100467.78;10428420;28;20513;-71
2023/05/14 00:48:07;;;;;;;7.80;5.50;;;;;;;13.51;63.03;100471.25;10426964;28;20107;-70
2023/05/14 00:53:09;;;;;;;6.80;4.20;;;;;;;13.47;63.08;100467.28;10426180;28;20037;-72
2023/05/14 00:58:12;;;;;;;7.72;4.90;;;;;;;13.48;62.97;100464.34;10420680;28;20088;-71
2023/05/14 01:03:14;;;;;;;4.93;4.22;;;;;;;13.31;63.37;100464.78;10421740;28;20125;-70
2023/05/14 01:08:26;;;;;;;6.50;4.30;;;;;;;13.05;63.85;100466.13;10411132;28;20631;-71
2023/05/14 01:13:58;;;;;;;6.90;4.75;;;;;;;12.93;64.38;100464.94;10426389;28;20073;-71
2023/05/14 01:19:01;;;;;;;6.13;4.60;;;;;;;12.78;64.73;100454.19;10418510;28;20081;-70
2023/05/14 01:24:02;;;;;;;6.28;4.80;;;;;;;12.68;65.11;100447.22;10414640;28;20063;-71
2023/05/14 01:29:11;;;;;;;6.15;4.68;;;;;;;12.63;64.79;100446.09;10409878;28;20096;-70
2023/05/14 01:34:13;;;;;;;12.07;5.70;;;;;;;12.54;64.86;100452.59;10422402;28;20225;-70
2023/05/14 01:39:15;;;;;;;5.72;4.72;;;;;;;12.49;64.90;100454.00;10424730;28;20091;-71
2023/05/14 01:44:17;;;;;;;7.40;5.32;;;;;;;12.55;64.87;100448.91;10428094;28;20095;-70
2023/05/14 01:49:18;;;;;;;6.05;4.55;;;;;;;12.53;65.34;100448.25;10421139;28;20077;-71
2023/05/14 01:54:20;;;;;;;4.85;4.00;;;;;;;12.54;65.08;100441.81;10425062;28;20054;-71
2023/05/14 01:59:21;;;;;;;8.85;4.53;;;;;;;12.43;65.13;100446.66;10421189;28;20087;-70
2023/05/14 02:04:23;;;;;;;5.63;4.78;;;;;;;12.39;65.55;100444.53;10419036;28;20130;-70
2023/05/14 02:09:24;;;;;;;5.07;4.57;;;;;;;12.47;65.40;100441.75;10418669;28;20518;-70
2023/05/14 02:14:25;;;;;;;15.63;4.72;;;;;;;12.50;64.85;100436.00;10419082;28;20131;-70
2023/05/14 02:19:27;;;;;;;7.00;4.68;;;;;;;12.48;65.33;100429.94;10424438;28;20073;-70
2023/05/14 02:24:28;;;;;;;4.88;4.28;;;;;;;12.46;65.18;100443.59;10425147;28;20080;-70
2023/05/14 02:29:29;;;;;;;4.10;3.58;;;;;;;12.46;65.13;100431.97;10424566;28;20072;-68
2023/05/14 02:34:33;;;;;;;6.22;5.10;;;;;;;12.45;65.48;100427.59;10426139;28;20472;-70
2023/05/14 02:39:34;;;;;;;7.18;4.80;;;;;;;12.41;64.89;100429.00;10422815;28;20771;-70
2023/05/14 02:44:36;;;;;;;7.05;5.15;;;;;;;12.37;65.43;100425.00;10421120;28;20048;-70
2023/05/14 02:49:37;;;;;;;6.63;4.30;;;;;;;12.20;65.72;100419.78;10421963;28;20041;-69
2023/05/14 02:54:39;;;;;;;5.75;4.75;;;;;;;12.16;65.93;100425.72;10421341;28;20136;-70
2023/05/14 02:59:40;;;;;;;10.52;5.20;;;;;;;12.21;65.71;100421.47;10422234;28;20049;-70
2023/05/14 03:04:42;;;;;;;6.93;6.20;;;;;;;12.20;65.96;100421.66;10401295;28;20052;-69
2023/05/14 03:09:44;;;;;;;7.72;5.55;;;;;;;12.17;65.96;100424.72;10423247;28;20087;-70
2023/05/14 03:14:45;;;;;;;9.13;5.72;;;;;;;11.95;66.56;100423.75;10419611;28;20136;-70
2023/05/14 03:19:46;;;;;;;9.32;6.18;;;;;;;11.89;66.74;100418.09;10414488;28;20050;-71
2023/05/14 03:24:48;;;;;;;6.97;5.50;;;;;;;11.86;66.71;100420.28;10418533;28;20161;-70
2023/05/14 03:29:49;;;;;;;8.43;6.50;;;;;;;11.76;66.67;100414.31;10399151;28;20075;-70
2023/05/14 03:34:50;;;;;;;7.35;6.47;;;;;;;11.76;67.01;100425.91;10422705;28;20556;-70
2023/05/14 03:39:52;;;;;;;9.50;6.20;;;;;;;11.75;67.11;100423.41;10422569;28;20442;-69
2023/05/14 03:44:53;;;;;;;9.20;7.10;;;;;;;11.80;66.90;100415.63;10418195;28;20505;-68
2023/05/14 03:49:55;;;;;;;10.02;6.15;;;;;;;11.79;66.93;100411.25;10418911;28;20102;-68
2023/05/14 03:54:57;;;;;;;8.68;7.15;;;;;;;11.71;67.20;100417.56;10402210;28;20504;-69
2023/05/14 03:59:58;;;;;;;9.18;7.00;;;;;;;11.70;67.16;100411.31;10403491;28;20116;-69
2023/05/14 04:05:00;;;;;;;9.25;6.90;;;;;;;11.76;66.92;100417.00;10422054;28;20065;-69
2023/05/14 04:10:02;;;;;;;8.45;6.38;;;;;;;11.71;67.18;100410.31;10416788;28;20076;-68
2023/05/14 04:15:05;;;;;;;10.70;6.30;;;;;;;11.80;67.19;100412.94;10411547;28;20049;-69
2023/05/14 04:20:07;;;;;;;13.25;6.18;;;;;;;11.87;66.83;100420.09;10428487;28;20534;-68
2023/05/14 04:25:09;;;;;;;9.15;6.13;;;;;;;11.93;66.59;100423.09;10410019;28;20100;-70
2023/05/14 04:30:11;;;;;;;9.50;5.88;;;;;;;11.83;66.86;100416.09;10424117;28;20445;-69
2023/05/14 04:35:12;;;;;;;9.23;6.88;;;;;;;11.82;67.20;100432.44;10426875;28;20127;-69
2023/05/14 04:40:15;;;;;;;7.40;5.80;;;;;;;11.90;66.92;100433.22;10431837;28;20041;-69
2023/05/14 04:45:17;;;;;;;7.85;6.47;;;;;;;12.05;67.03;100435.94;10426546;28;20571;-68
2023/05/14 04:50:18;;;;;;;11.15;8.45;;;;;;;12.15;67.03;100432.16;10423523;28;20046;-69
2023/05/14 04:55:20;;;;;;;9.73;6.45;;;;;;;12.33;67.01;100432.63;10422351;28;20045;-69
2023/05/14 05:00:22;;;;;;;8.10;6.35;;;;;;;12.47;66.85;100441.75;10404901;28;20077;-69
2023/05/14 05:05:23;;;;;;;6.43;5.57;;;;;;;12.53;67.04;100440.16;10413895;28;20077;-70
2023/05/14 05:10:25;;;;;;;9.10;6.00;;;;;;;12.73;66.93;100441.25;10424316;28;20077;-69
2023/05/14 05:15:26;;;;;;;7.18;5.28;;;;;;;12.89;66.79;100434.81;10425495;28;20514;-69
2023/05/14 05:20:28;;;;;;;7.70;5.65;;;;;;;12.97;67.27;100428.47;10416937;28;20139;-69
2023/05/14 05:25:29;;;;;;;9.57;5.75;;;;;;;13.24;66.55;100435.84;10423864;28;20496;-69
2023/05/14 05:30:31;;;;;;;6.72;5.22;;;;;;;13.46;66.41;100434.00;10427065;28;20479;-70
2023/05/14 05:35:32;;;;;;;7.57;5.20;;;;;;;13.70;65.83;100429.25;10417182;28;20065;-68
2023/05/14 05:40:34;;;;;;;9.65;4.57;;;;;;;13.87;65.95;100435.22;10420904;28;20057;-69
2023/05/14 05:45:35;;;;;;;5.93;4.68;;;;;;;14.06;65.51;100431.00;10424520;28;20076;-69
2023/05/14 05:50:37;;;;;;;5.53;4.90;;;;;;;14.31;65.48;100433.22;10422517;28;20045;-69
2023/05/14 05:55:39;;;;;;;4.95;4.47;;;;;;;14.54;64.85;100427.56;10423030;28;20098;-69
2023/05/14 06:00:40;;;;;;;5.18;4.70;;;;;;;14.73;64.73;100426.00;10425764;28;20468;-70
2023/05/14 06:05:42;;;;;;;5.10;4.50;;;;;;;14.92;64.42;100427.94;10407719;28;20132;-72
2023/05/14 06:10:44;;;;;;;7.18;5.05;;;;;;;14.97;64.46;100430.88;10416519;28;20136;-72
2023/05/14 06:15:47;;;;;;;5.63;5.00;;;;;;;15.06;64.37;100437.78;10419602;28;20057;-72
2023/05/14 06:20:49;;;;;;;5.75;5.15;;;;;;;15.29;64.32;100436.59;10422818;28;20135;-72
2023/05/14 06:25:51;;;;;;;10.70;4.50;;;;;;;15.50;64.09;100424.78;10422499;28;20136;-72
2023/05/14 06:30:55;;;;;;;7.85;3.67;;;;;;;15.86;63.60;100434.41;10420435;28;20474;-72
2023/05/14 06:36:02;;;;;;;7.10;4.38;;;;;;;16.09;63.02;100425.81;10418744;28;20128;-72
2023/05/14 06:41:04;;;;;;;4.18;3.55;;;;;;;16.34;62.48;100434.13;10420777;28;20462;-71
2023/05/14 06:46:05;;;;;;;4.05;3.40;;;;;;;16.49;62.22;100425.78;10416846;28;20049;-71
2023/05/14 06:51:07;;;;;;;5.55;3.63;;;;;;;16.70;61.66;100424.63;10416957;28;20084;-63
2023/05/14 06:56:09;;;;;;;4.78;3.30;;;;;;;17.16;60.97;100423.63;10410295;28;20061;-63
2023/05/14 07:01:11;;;;;;;3.47;3.05;;;;;;;17.30;60.59;100418.09;10416418;28;20085;-63
2023/05/14 07:06:12;;;;;;;5.38;2.78;;;;;;;17.29;59.35;100411.84;10417980;28;20053;-62
2023/05/14 07:11:14;;;;;;;3.95;2.80;;;;;;;17.54;58.28;100413.78;10418839;28;20056;-62
2023/05/14 07:16:15;;;;;;;4.07;2.05;;;;;;;17.58;58.18;100407.69;10415931;28;20107;-62
2023/05/14 07:21:18;;;;;;;2.47;2.28;;;;;;;17.66;57.59;100412.00;10416852;28;20077;-62
2023/05/14 07:26:20;;;;;;;2.50;2.25;;;;;;;17.70;57.33;100404.25;10416177;28;20077;-63
2023/05/14 07:31:21;;;;;;;2.55;2.15;;;;;;;17.63;57.36;100399.69;10398591;28;20087;-62
2023/05/14 07:36:23;;;;;;;3.70;2.85;;;;;;;17.69;56.79;100386.25;10417416;28;20156;-64
2023/05/14 07:41:24;;;;;;;3.33;2.20;;;;;;;17.83;56.29;100379.63;10420744;28;20058;-62
2023/05/14 07:46:25;;;;;;;2.78;2.13;;;;;;;18.05;55.59;100380.13;10417998;28;20072;-63
2023/05/14 07:51:27;;;;;;;5.30;2.25;;;;;;;18.22;55.09;100383.88;10424823;28;20489;-63
2023/05/14 07:56:28;;;;;;;2.33;2.10;;;;;;;18.24;54.91;100376.31;10426372;28;20067;-63
2023/05/14 08:01:30;;;;;;;2.25;1.80;;;;;;;18.36;54.63;100386.47;10424984;28;20495;-63
2023/05/14 08:06:32;;;;;;;3.17;2.28;;;;;;;18.42;54.36;100367.38;10426085;28;20065;-63
2023/05/14 08:11:33;;;;;;;2.65;2.40;;;;;;;18.57;53.93;100379.75;10421076;28;20095;-63
2023/05/14 08:16:35;;;;;;;3.35;1.85;;;;;;;18.55;53.63;100374.53;10424247;28;20057;-64
2023/05/14 08:21:36;;;;;;;3.97;2.20;;;;;;;18.79;53.37;100367.34;10423859;28;20076;-64
2023/05/14 08:26:37;;;;;;;2.15;1.95;;;;;;;19.01;52.93;100358.66;10421522;28;20468;-63
2023/05/14 08:31:39;;;;;;;4.05;2.28;;;;;;;19.27;52.38;100348.44;10420684;28;20568;-64
2023/05/14 08:36:40;;;;;;;2.13;1.92;;;;;;;19.20;52.17;100349.34;10422557;28;20073;-70
2023/05/14 08:41:42;;;;;;;5.22;2.03;;;;;;;19.30;51.76;100345.25;10423055;28;20080;-70
2023/05/14 08:46:44;;;;;;;3.00;2.35;;;;;;;19.29;51.76;100341.66;10425490;28;20122;-70
2023/05/14 08:51:47;;;;;;;2.55;1.90;;;;;;;19.42;51.57;100338.72;10419045;28;20136;-70
2023/05/14 08:56:50;;;;;;;3.25;1.50;;;;;;;19.64;50.53;100329.16;10421794;28;20048;-69
2023/05/14 09:01:54;;;;;;;2.35;1.95;;;;;;;19.72;50.61;100328.84;10417034;28;20047;-69
2023/05/14 09:06:57;;;;;;;2.15;1.38;;;;;;;19.92;49.83;100325.75;10425829;28;20210;-69
2023/05/14 09:12:00;;;;;;;4.35;1.30;;;;;;;19.85;49.90;100323.16;10424477;28;20065;-69
2023/05/14 09:17:02;;;;;;;3.05;1.00;;;;;;;19.94;48.95;100315.41;10422339;28;20128;-69
2023/05/14 09:22:07;;;;;;;2.83;1.00;;;;;;;20.24;48.66;100312.53;10421828;28;20693;-69
2023/05/14 09:27:16;;;;;;;1.67;1.17;;;;;;;20.38;48.22;100322.13;10420667;28;20177;-69
2023/05/14 09:32:19;;;;;;;4.18;1.15;;;;;;;20.65;47.62;100310.63;10425380;28;20739;-70
2023/05/14 09:37:20;;;;;;;1.20;1.00;;;;;;;20.80;46.81;100312.84;10425656;28;20604;-69
2023/05/14 09:42:22;;;;;;;4.38;0.98;;;;;;;20.79;46.33;100314.75;10423782;28;20072;-69
2023/05/14 09:47:23;;;;;;;1.52;0.88;;;;;;;20.94;45.87;100311.47;10422595;28;20514;-68
2023/05/14 09:52:25;;;;;;;1.05;0.75;;;;;;;21.14;45.98;100301.97;10421900;28;20056;-70
2023/05/14 09:57:27;;;;;;;1.73;0.95;;;;;;;21.25;45.86;100308.44;10420010;28;20407;-70
2023/05/14 10:02:36;;;;;;;1.45;1.10;;;;;;;21.39;45.83;100310.59;10422098;28;20187;-70
2023/05/14 10:07:51;;;;;;;1.63;1.10;;;;;;;21.55;44.87;100311.69;10422494;28;20082;-69
2023/05/14 10:12:57;;;;;;;2.42;0.75;;;;;;;21.75;44.44;100310.34;10417190;28;20095;-70
2023/05/14 10:18:04;;;;;;;1.97;1.10;;;;;;;21.81;44.62;100303.06;10412745;28;20076;-69
2023/05/14 10:23:06;;;;;;;3.13;0.90;;;;;;;21.63;44.69;100312.38;10419188;28;20404;-69
2023/05/14 10:28:08;;;;;;;2.95;0.93;;;;;;;21.57;44.45;100314.19;10427106;28;20045;-69
2023/05/14 10:33:15;;;;;;;1.35;0.95;;;;;;;21.59;44.18;100307.38;10419653;28;20075;-69
2023/05/14 10:38:20;;;;;;;2.10;1.10;;;;;;;21.69;44.46;100311.38;10423760;28;20056;-67
2023/05/14 10:43:25;;;;;;;1.58;0.85;;;;;;;21.79;44.00;100295.91;10422945;28;20122;-68
2023/05/14 10:48:27;;;;;;;1.27;0.90;;;;;;;21.97;43.52;100303.00;10419786;28;20076;-68
2023/05/14 10:53:32;;;;;;;1.80;0.85;;;;;;;21.97;43.54;100292.06;10417891;28;20076;-68
2023/05/14 10:58:39;;;;;;;3.17;0.88;;;;;;;22.30;42.75;100281.28;10417314;28;20107;-70
2023/05/14 11:03:42;;;;;;;;;;;;;;;22.37;43.50;100279.16;10418786;28;20129;-69
2023/05/14 11:08:45;;;;;;;1.25;0.73;;;;;;;22.38;42.60;100284.38;10419000;28;19927;-70
2023/05/14 11:13:46;;;;;;;1.10;1.00;;;;;;;22.82;42.02;100275.25;10418947;28;20045;-70
2023/05/14 11:18:53;;;;;;;3.58;0.77;;;;;;;23.08;41.08;100264.56;10456158;28;20057;-68
2023/05/14 11:23:55;;;;;;;;;;;;;;;23.37;41.47;100267.81;10463082;28;20063;-69
2023/05/14 11:28:56;;;;;;;1.08;0.95;;;;;;;23.75;40.84;100260.38;10468372;28;19927;-68
2023/05/14 11:33:58;;;;;;;1.00;0.90;;;;;;;23.80;40.64;100254.94;10467012;28;20030;-69
2023/05/14 11:39:00;;;;;;;0.95;0.60;;;;;;;23.68;40.29;100246.88;10447925;28;20207;-68
2023/05/14 11:44:02;;;;;;;1.25;0.50;;;;;;;24.07;39.91;100237.47;10465843;28;20090;-69
2023/05/14 11:49:04;;;;;;;2.05;0.73;;;;;;;24.15;39.46;100226.81;10463348;28;20554;-68
2023/05/14 11:54:05;;;;;;;1.58;0.90;;;;;;;24.31;38.85;100235.13;10465657;28;20049;-69
2023/05/14 11:59:09;;;;;;;3.10;1.48;;;;;;;24.58;38.24;100217.59;10467098;28;20178;-70
2023/05/14 12:04:12;;;;;;;0.65;0.60;;;;;;;24.33;38.35;100216.44;10451984;28;20229;-69
2023/05/14 12:09:20;;;;;;;0.88;0.60;;;;;;;24.42;37.82;100223.03;10442943;28;20048;-69
2023/05/14 12:14:23;;;;;;;1.35;0.80;;;;;;;24.57;37.14;100215.97;10425066;28;20107;-69
2023/05/14 12:19:24;;;;;;;1.00;0.80;;;;;;;24.76;37.16;100200.56;10442990;28;20049;-70
2023/05/14 12:24:26;;;;;;;0.60;0.60;;;;;;;24.73;37.00;100193.69;10464092;28;20049;-69
2023/05/14 12:29:27;;;;;;;1.17;0.60;;;;;;;24.86;37.38;100188.75;10437283;28;20092;-69
2023/05/14 12:34:28;;;;;;;2.08;1.00;;;;;;;24.91;36.49;100186.81;10453833;28;20104;-69
2023/05/14 12:39:32;;;;;;;1.25;0.70;;;;;;;25.04;36.39;100182.72;10456594;28;20049;-69
2023/05/14 12:44:34;;;;;;;1.23;0.77;;;;;;;25.38;36.30;100171.13;10429234;28;20044;-69
2023/05/14 12:49:35;;;;;;;1.00;0.52;;;;;;;25.75;35.36;100164.41;10452728;28;20123;-69
2023/05/14 12:54:39;;;;;;;0.90;0.60;;;;;;;26.00;34.43;100154.38;10452047;28;20049;-71
2023/05/14 12:59:43;;;;;;;0.77;0.65;;;;;;;25.98;34.50;100149.16;10432391;28;20045;-68
2023/05/14 13:04:44;;;;;;;1.95;0.65;;;;;;;26.39;33.67;100137.06;10451712;28;20048;-68
2023/05/14 13:09:45;;;;;;;1.20;0.60;;;;;;;26.86;33.21;100124.56;10437290;28;20104;-68
2023/05/14 13:14:47;;;;;;;1.05;0.50;;;;;;;27.32;32.51;100120.53;10441555;28;20060;-69
2023/05/14 13:19:49;;;;;;;1.15;0.57;;;;;;;27.57;32.41;100116.63;10465042;28;20057;-70
2023/05/14 13:24:50;;;;;;;0.57;0.50;;;;;;;27.46;31.97;100114.00;10466380;28;20045;-69
2023/05/14 13:29:51;;;;;;;0.80;0.60;;;;;;;27.58;32.20;100110.81;10464987;28;20037;-70
2023/05/14 13:34:53;;;;;;;1.80;0.43;;;;;;;27.82;31.69;100113.53;10467951;28;20033;-70
2023/05/14 13:39:54;;;;;;;0.88;0.60;;;;;;;28.33;30.50;100103.69;10455451;28;20076;-71
2023/05/14 13:44:59;;;;;;;2.05;0.50;;;;;;;28.54;29.91;100092.34;10462785;28;20091;-70
2023/05/14 13:50:00;;;;;;;0.40;0.40;;;;;;;28.74;29.31;100091.97;10471999;28;20056;-71
2023/05/14 13:55:02;;;;;;;0.57;0.55;;;;;;;28.94;29.44;100095.50;10467163;28;20048;-69
2023/05/14 14:00:05;;;;;;;0.60;0.50;;;;;;;28.93;29.31;100078.09;10458710;28;20037;-69
2023/05/14 14:05:07;;;;;;;1.38;0.50;;;;;;;28.68;29.58;100080.19;10445921;28;20049;-70
2023/05/14 14:10:09;;;;;;;0.82;0.45;;;;;;;28.88;29.20;100075.41;10420817;28;20044;-69
2023/05/14 14:15:10;;;;;;;0.95;0.40;;;;;;;29.25;28.34;100076.38;10452603;28;20072;-69
2023/05/14 14:20:12;;;;;;;0.65;0.40;;;;;;;29.21;28.35;100065.09;10460407;28;20076;-71
2023/05/14 14:25:13;;;;;;;0.70;0.40;;;;;;;29.53;27.57;100054.22;10462231;28;20049;-71
2023/05/14 14:30:14;;;;;;;0.90;0.40;;;;;;;29.31;27.46;100047.47;10449050;28;20052;-70
2023/05/14 14:35:18;;;;;;;0.65;0.40;;;;;;;29.16;28.36;100039.47;10441100;28;20045;-70
2023/05/14 14:40:19;;;;;;;0.70;0.60;;;;;;;29.78;28.20;100037.03;10414511;28;20045;-70
2023/05/14 14:45:21;;;;;;;0.65;0.47;;;;;;;30.58;26.95;100028.16;10432673;28;20065;-70
2023/05/14 14:50:23;;;;;;;0.50;0.30;;;;;;;30.91;25.61;100027.88;10418310;28;20057;-69
2023/05/14 14:55:24;;;;;;;0.40;0.30;;;;;;;31.07;25.76;100020.72;10438434;28;20049;-69
2023/05/14 15:00:25;;;;;;;0.50;0.45;;;;;;;30.51;26.05;100027.78;10428513;28;20053;-70
2023/05/14 15:05:27;;;;;;;0.68;0.68;;;;;;;30.20;26.28;100021.06;10426754;28;20415;-69
2023/05/14 15:10:30;;;;;;;0.88;0.60;;;;;;;30.50;26.67;100017.84;10443301;28;20068;-70
2023/05/14 15:15:32;;;;;;;1.48;0.55;;;;;;;30.43;27.38;100010.78;10429297;28;20030;-70
2023/05/14 15:20:34;;;;;;;0.85;0.50;;;;;;;30.02;27.02;100022.06;10444577;28;20056;-69
2023/05/14 15:25:35;;;;;;;1.92;0.60;;;;;;;29.79;27.52;100019.25;10443646;28;20048;-69
2023/05/14 15:30:36;;;;;;;0.50;0.40;;;;;;;28.70;29.20;100034.81;10451692;28;20049;-70
2023/05/14 15:35:38;;;;;;;0.50;0.50;;;;;;;27.59;30.56;100029.63;10447588;28;20037;-68
2023/05/14 15:40:39;;;;;;;0.93;0.52;;;;;;;26.85;31.13;100038.22;10458246;28;20076;-69
2023/05/14 15:45:43;;;;;;;1.02;0.55;;;;;;;25.96;32.99;100032.09;10441839;28;20411;-69
2023/05/14 15:50:47;;;;;;;1.48;0.50;;;;;;;25.21;34.49;100035.75;10462073;28;20053;-68
2023/05/14 15:55:50;;;;;;;0.50;0.40;;;;;;;24.92;34.90;100047.41;10460128;28;20083;-69
2023/05/14 16:00:51;;;;;;;1.98;0.40;;;;;;;25.20;35.91;100034.09;10448236;28;20046;-68
2023/05/14 16:05:53;;;;;;;0.88;0.52;;;;;;;25.57;35.27;100032.88;10451580;28;20045;-69
2023/05/14 16:10:55;;;;;;;0.55;0.50;;;;;;;26.00;35.53;100025.72;10466130;28;20088;-69
2023/05/14 16:15:58;;;;;;;4.00;0.60;;;;;;;26.50;35.11;100011.78;10467120;28;20111;-69
2023/05/14 16:21:00;;;;;;;1.17;0.65;;;;;;;26.47;35.88;100023.41;10452727;28;20045;-70
2023/05/14 16:26:02;;;;;;;3.30;0.82;;;;;;;26.54;35.47;100001.84;10462631;28;20072;-69
2023/05/14 16:31:03;;;;;;;3.50;0.70;;;;;;;26.42;34.94;100023.47;10461291;28;20045;-69
2023/05/14 16:36:04;;;;;;;0.63;0.40;;;;;;;26.63;34.48;100011.16;10459640;28;20098;-68
2023/05/14 16:41:08;;;;;;;1.83;0.55;;;;;;;26.98;34.52;100014.63;10461835;28;20812;-68
2023/05/14 16:46:10;;;;;;;0.73;0.60;;;;;;;26.49;36.00;100007.41;10458053;28;20045;-69
2023/05/14 16:51:12;;;;;;;1.92;0.57;;;;;;;26.47;36.66;100015.97;10465345;28;20091;-69
2023/05/14 16:56:13;;;;;;;0.65;0.55;;;;;;;26.19;36.60;100014.03;10464765;28;20045;-69
2023/05/14 17:01:14;;;;;;;0.82;0.30;;;;;;;26.30;35.67;100024.69;10463307;28;20094;-69
2023/05/14 17:06:16;;;;;;;0.93;0.40;;;;;;;26.50;34.53;100015.41;10459720;28;20045;-70
2023/05/14 17:11:17;;;;;;;1.33;0.60;;;;;;;26.37;34.01;100006.97;10460013;28;20049;-69
2023/05/14 17:16:20;;;;;;;2.20;0.40;;;;;;;26.29;33.89;100016.69;10461339;28;20075;-68
2023/05/14 17:21:22;;;;;;;0.88;0.30;;;;;;;26.17;34.46;100016.25;10439086;28;20072;-69
2023/05/14 17:26:23;;;;;;;1.35;0.50;;;;;;;26.01;34.88;100013.63;10410161;28;20129;-69
2023/05/14 17:31:25;;;;;;;0.85;0.50;;;;;;;25.47;36.06;100017.22;10425553;28;20045;-68
2023/05/14 17:36:27;;;;;;;1.00;0.60;;;;;;;24.94;36.73;100018.53;10426902;28;20048;-70
2023/05/14 17:41:28;;;;;;;0.40;0.40;;;;;;;24.25;37.62;100021.91;10422428;28;20068;-69
2023/05/14 17:46:30;;;;;;;0.82;0.38;;;;;;;23.49;38.80;100017.94;10420893;28;20064;-69
2023/05/14 17:51:31;;;;;;;1.52;0.50;;;;;;;22.87;39.75;100020.41;10410977;28;20041;-69
2023/05/14 17:56:33;;;;;;;0.80;0.40;;;;;;;22.36;40.60;100025.53;10396029;28;20049;-69
2023/05/14 18:01:34;;;;;;;0.60;0.40;;;;;;;21.84;40.89;100023.41;10425434;28;20145;-69
2023/05/14 18:06:36;;;;;;;1.15;0.60;;;;;;;21.29;42.35;100036.19;10426738;28;20081;-70
2023/05/14 18:11:37;;;;;;;2.28;0.60;;;;;;;20.90;42.97;100036.22;10418907;28;20068;-69
2023/05/14 18:16:39;;;;;;;1.65;0.60;;;;;;;20.63;43.50;100047.03;10429416;28;20042;-69
2023/05/14 18:21:41;;;;;;;5.25;0.60;;;;;;;20.30;44.11;100038.59;10433436;28;20049;-68
2023/05/14 18:26:42;;;;;;;1.00;0.70;;;;;;;20.00;44.40;100037.00;10418869;28;20550;-70
2023/05/14 18:31:43;;;;;;;1.10;0.50;;;;;;;19.84;44.93;100045.94;10426191;28;20046;-69
2023/05/14 18:36:45;;;;;;;0.88;0.70;;;;;;;19.47;45.74;100056.38;10433355;28;20389;-70
2023/05/14 18:41:46;;;;;;;1.13;0.60;;;;;;;19.49;45.50;100060.53;10436506;28;20106;-69
2023/05/14 18:46:48;;;;;;;1.25;0.60;;;;;;;19.41;45.71;100059.03;10428093;28;20060;-68
2023/05/14 18:51:49;;;;;;;0.68;0.57;;;;;;;19.15;46.57;100065.00;10453544;28;20096;-71
2023/05/14 18:56:51;;;;;;;0.90;0.60;;;;;;;19.27;46.38;100073.16;10417321;28;20049;-70
2023/05/14 19:01:52;;;;;;;1.27;0.60;;;;;;;19.29;46.23;100069.09;10400749;28;20142;-70
2023/05/14 19:06:54;;;;;;;2.28;0.70;;;;;;;19.17;46.63;100074.63;10410437;28;20049;-73
2023/05/14 19:11:55;;;;;;;1.00;0.45;;;;;;;19.14;46.84;100082.44;10412940;28;20135;-72
2023/05/14 19:16:57;;;;;;;1.40;0.75;;;;;;;19.11;46.63;100080.16;10418204;28;20155;-72
2023/05/14 19:21:59;;;;;;;25.30;2.67;;;;;;;19.06;47.01;100094.53;10421213;28;20435;-72
2023/05/14 19:27:00;;;;;;;1.45;0.57;;;;;;;19.02;47.03;100096.88;10401288;28;20077;-72
2023/05/14 19:32:03;;;;;;;0.90;0.65;;;;;;;18.95;47.39;100095.34;10408142;28;20077;-70
2023/05/14 19:37:04;;;;;;;1.45;0.70;;;;;;;18.85;47.59;100089.66;10417565;28;20103;-73
2023/05/14 19:42:06;;;;;;;1.45;0.70;;;;;;;18.88;47.83;100095.47;10423404;28;20127;-70
2023/05/14 19:47:07;;;;;;;2.63;0.70;;;;;;;18.79;48.01;100089.53;10434579;28;20037;-75
2023/05/14 19:52:10;;;;;;;1.15;0.70;;;;;;;18.78;47.84;100092.50;10401210;28;20080;-73
2023/05/14 19:57:11;;;;;;;1.60;0.70;;;;;;;18.71;48.06;100099.94;10427348;28;20140;-75
2023/05/14 20:02:16;;;;;;;2.70;0.93;;;;;;;18.75;47.92;100085.59;10403039;28;20053;-73
2023/05/14 20:07:19;;;;;;;1.33;0.70;;;;;;;18.67;48.42;100088.69;10428106;28;20049;-70
2023/05/14 20:12:20;;;;;;;2.38;0.80;;;;;;;18.57;48.54;100086.53;10428150;28;20052;-73
2023/05/14 20:17:21;;;;;;;1.40;0.80;;;;;;;18.48;48.88;100079.78;10425997;28;20131;-73
2023/05/14 20:22:23;;;;;;;1.45;0.70;;;;;;;18.51;48.71;100078.50;10429046;28;20565;-72
2023/05/14 20:27:24;;;;;;;1.10;0.60;;;;;;;18.47;49.13;100083.56;10397023;28;20071;-69
2023/05/14 20:32:26;;;;;;;1.65;0.80;;;;;;;18.41;49.12;100081.78;10397395;28;20045;-73
2023/05/14 20:37:29;;;;;;;1.05;0.82;;;;;;;18.45;49.21;100063.94;10406704;28;20049;-71
2023/05/14 20:42:30;;;;;;;2.75;0.90;;;;;;;18.44;49.65;100078.59;10397240;28;20064;-73
2023/05/14 20:47:32;;;;;;;1.05;0.70;;;;;;;18.48;49.71;100071.59;10417778;28;20528;-72
2023/05/14 20:52:34;;;;;;;2.05;0.73;;;;;;;18.46;50.20;100067.47;10428645;28;20071;-73
2023/05/14 20:57:35;;;;;;;1.33;0.70;;;;;;;18.40;50.77;100077.41;10417066;28;20071;-72
2023/05/14 21:02:37;;;;;;;2.35;0.80;;;;;;;18.33;51.04;100072.06;10427272;28;20077;-73
2023/05/14 21:07:39;;;;;;;5.13;0.90;;;;;;;18.22;51.25;100067.44;10427887;28;20142;-73
2023/05/14 21:12:40;;;;;;;1.73;1.10;;;;;;;18.10;51.62;100063.88;10412504;28;20393;-71
2023/05/14 21:17:44;;;;;;;3.75;1.55;;;;;;;18.01;52.04;100060.66;10421257;28;20053;-69
2023/05/14 21:22:46;;;;;;;3.45;0.98;;;;;;;17.82;52.29;100055.22;10424210;28;20057;-70
2023/05/14 21:27:47;;;;;;;0.75;0.70;;;;;;;17.72;52.43;100057.69;10426716;28;20056;-69
2023/05/14 21:32:48;;;;;;;3.13;1.92;;;;;;;17.57;52.93;100063.50;10432668;28;20906;-71
2023/05/14 21:37:50;;;;;;;1.83;1.35;;;;;;;17.47;53.16;100057.78;10423807;28;20516;-71
2023/05/14 21:42:52;;;;;;;1.80;1.58;;;;;;;17.27;53.86;100055.31;10409748;28;20041;-69
2023/05/14 21:47:53;;;;;;;1.50;1.00;;;;;;;17.16;54.16;100053.34;10428909;28;20041;-68
2023/05/14 21:52:55;;;;;;;2.08;1.60;;;;;;;17.04;54.51;100043.28;10422635;28;20412;-69
2023/05/14 21:57:57;;;;;;;3.00;2.65;;;;;;;16.94;54.98;100034.81;10421138;28;20048;-70
2023/05/14 22:02:59;;;;;;;6.30;3.03;;;;;;;16.82;55.16;100026.59;10391854;28;20462;-69
2023/05/14 22:08:00;;;;;;;3.03;2.10;;;;;;;16.71;55.25;100024.59;10424923;28;20132;-70
2023/05/14 22:13:02;;;;;;;8.63;2.08;;;;;;;16.61;55.50;100032.41;10425761;28;20191;-71
2023/05/14 22:18:03;;;;;;;2.13;1.40;;;;;;;16.46;55.79;100041.72;10423378;28;20099;-71
2023/05/14 22:23:05;;;;;;;1.70;1.17;;;;;;;16.37;56.09;100045.78;10422139;28;20409;-69
2023/05/14 22:28:06;;;;;;;3.78;1.05;;;;;;;16.27;56.42;100037.28;10426425;28;20064;-71
2023/05/14 22:33:07;;;;;;;2.10;1.67;;;;;;;16.12;56.86;100034.09;10432108;28;20495;-69
2023/05/14 22:38:09;;;;;;;2.78;1.58;;;;;;;15.85;57.39;100026.94;10445954;28;20083;-68
2023/05/14 22:43:10;;;;;;;3.22;1.83;;;;;;;15.77;57.87;100018.25;10430627;28;20057;-69
2023/05/14 22:48:12;;;;;;;1.88;1.70;;;;;;;15.70;57.93;100020.13;10423820;28;20511;-70
2023/05/14 22:53:13;;;;;;;1.85;1.60;;;;;;;15.66;57.92;100017.88;10421288;28;20100;-70
2023/05/14 22:58:15;;;;;;;2.88;1.85;;;;;;;15.63;58.00;100012.88;10416454;28;20144;-70
2023/05/14 23:03:16;;;;;;;3.47;1.60;;;;;;;15.56;58.52;100019.38;10416946;28;20527;-68
2023/05/14 23:08:17;;;;;;;1.52;1.42;;;;;;;15.49;58.65;100013.19;10426116;28;20107;-69